sensor_id;sensor_type;location;lat;lon;timestamp;P1;durP1;ratioP1;P2;durP2;ratioP2
62123;SDS011;48110;47.532;19.078;2022-08-19T00:02:25;9.57;;;5.40;;
62123;SDS011;48110;47.532;19.078;2022-08-19T00:05:29;10.10;;;5.55;;
62123;SDS011;48110;47.532;19.078;2022-08-19T00:08:32;8.25;;;5.93;;
62123;SDS011;48110;47.532;19.078;2022-08-19T00:11:35;8.07;;;6.20;;
62123;SDS011;48110;47.532;19.078;2022-08-19T00:14:39;9.82;;;6.50;;
62123;SDS011;48110;47.532;19.078;2022-08-19T00:17:43;8.95;;;6.62;;
62123;SDS011;48110;47.532;19.078;2022-08-19T00:20:46;9.38;;;6.78;;
62123;SDS011;48110;47.532;19.078;2022-08-19T00:23:49;8.27;;;6.90;;
62123;SDS011;48110;47.532;19.078;2022-08-19T00:26:52;8.10;;;6.40;;
62123;SDS011;48110;47.532;19.078;2022-08-19T00:29:57;8.38;;;6.70;;
62123;SDS011;48110;47.532;19.078;2022-08-19T00:33:00;8.70;;;6.45;;
62123;SDS011;48110;47.532;19.078;2022-08-19T00:36:04;10.65;;;6.75;;
62123;SDS011;48110;47.532;19.078;2022-08-19T00:39:09;9.45;;;6.30;;
62123;SDS011;48110;47.532;19.078;2022-08-19T00:42:12;10.13;;;6.78;;
62123;SDS011;48110;47.532;19.078;2022-08-19T00:45:18;11.55;;;6.53;;
62123;SDS011;48110;47.532;19.078;2022-08-19T00:48:23;11.90;;;6.90;;
62123;SDS011;48110;47.532;19.078;2022-08-19T00:51:26;12.98;;;6.87;;
62123;SDS011;48110;47.532;19.078;2022-08-19T00:54:32;11.07;;;7.25;;
62123;SDS011;48110;47.532;19.078;2022-08-19T00:57:37;11.38;;;7.20;;
62123;SDS011;48110;47.532;19.078;2022-08-19T01:00:42;10.95;;;6.32;;
62123;SDS011;48110;47.532;19.078;2022-08-19T01:03:45;8.25;;;5.97;;
62123;SDS011;48110;47.532;19.078;2022-08-19T01:07:01;8.00;;;6.78;;
62123;SDS011;48110;47.532;19.078;2022-08-19T01:10:08;8.05;;;6.05;;
62123;SDS011;48110;47.532;19.078;2022-08-19T01:13:21;10.32;;;6.85;;
62123;SDS011;48110;47.532;19.078;2022-08-19T01:16:27;9.70;;;6.70;;
62123;SDS011;48110;47.532;19.078;2022-08-19T01:19:36;13.02;;;6.30;;
62123;SDS011;48110;47.532;19.078;2022-08-19T01:22:47;9.20;;;6.65;;
62123;SDS011;48110;47.532;19.078;2022-08-19T01:25:58;10.20;;;6.57;;
62123;SDS011;48110;47.532;19.078;2022-08-19T01:29:01;8.52;;;5.90;;
62123;SDS011;48110;47.532;19.078;2022-08-19T01:32:07;8.90;;;5.82;;
62123;SDS011;48110;47.532;19.078;2022-08-19T01:35:36;13.00;;;6.43;;
62123;SDS011;48110;47.532;19.078;2022-08-19T01:38:41;11.88;;;6.20;;
62123;SDS011;48110;47.532;19.078;2022-08-19T01:41:46;7.50;;;5.97;;
62123;SDS011;48110;47.532;19.078;2022-08-19T01:44:50;13.18;;;6.22;;
62123;SDS011;48110;47.532;19.078;2022-08-19T01:47:53;9.15;;;6.10;;
62123;SDS011;48110;47.532;19.078;2022-08-19T01:51:04;9.70;;;6.53;;
62123;SDS011;48110;47.532;19.078;2022-08-19T01:54:09;11.70;;;6.20;;
62123;SDS011;48110;47.532;19.078;2022-08-19T01:57:13;10.88;;;6.60;;
62123;SDS011;48110;47.532;19.078;2022-08-19T02:00:18;10.15;;;6.18;;
62123;SDS011;48110;47.532;19.078;2022-08-19T02:03:22;11.70;;;6.95;;
62123;SDS011;48110;47.532;19.078;2022-08-19T02:06:25;9.57;;;6.20;;
62123;SDS011;48110;47.532;19.078;2022-08-19T02:09:28;10.57;;;6.78;;
62123;SDS011;48110;47.532;19.078;2022-08-19T02:12:33;10.82;;;6.50;;
62123;SDS011;48110;47.532;19.078;2022-08-19T02:15:39;8.82;;;6.62;;
62123;SDS011;48110;47.532;19.078;2022-08-19T02:18:41;8.77;;;6.55;;
62123;SDS011;48110;47.532;19.078;2022-08-19T02:21:44;10.32;;;6.80;;
62123;SDS011;48110;47.532;19.078;2022-08-19T02:24:47;9.52;;;6.80;;
62123;SDS011;48110;47.532;19.078;2022-08-19T02:27:50;9.27;;;6.85;;
62123;SDS011;48110;47.532;19.078;2022-08-19T02:30:52;14.55;;;6.57;;
62123;SDS011;48110;47.532;19.078;2022-08-19T02:33:56;13.85;;;6.60;;
62123;SDS011;48110;47.532;19.078;2022-08-19T02:36:59;8.90;;;6.50;;
62123;SDS011;48110;47.532;19.078;2022-08-19T02:40:05;12.65;;;7.10;;
62123;SDS011;48110;47.532;19.078;2022-08-19T02:43:13;10.40;;;6.75;;
62123;SDS011;48110;47.532;19.078;2022-08-19T02:46:18;11.07;;;6.85;;
62123;SDS011;48110;47.532;19.078;2022-08-19T02:49:23;10.52;;;7.07;;
62123;SDS011;48110;47.532;19.078;2022-08-19T02:52:29;10.18;;;6.97;;
62123;SDS011;48110;47.532;19.078;2022-08-19T02:55:31;10.07;;;6.78;;
62123;SDS011;48110;47.532;19.078;2022-08-19T02:58:48;9.32;;;7.03;;
62123;SDS011;48110;47.532;19.078;2022-08-19T03:01:51;8.38;;;6.93;;
62123;SDS011;48110;47.532;19.078;2022-08-19T03:04:54;9.43;;;6.87;;
62123;SDS011;48110;47.532;19.078;2022-08-19T03:07:57;14.80;;;6.82;;
62123;SDS011;48110;47.532;19.078;2022-08-19T03:11:00;10.98;;;7.18;;
62123;SDS011;48110;47.532;19.078;2022-08-19T03:14:03;9.27;;;7.40;;
62123;SDS011;48110;47.532;19.078;2022-08-19T03:17:06;10.13;;;7.22;;
62123;SDS011;48110;47.532;19.078;2022-08-19T03:20:10;10.05;;;7.35;;
62123;SDS011;48110;47.532;19.078;2022-08-19T03:23:13;13.85;;;7.50;;
62123;SDS011;48110;47.532;19.078;2022-08-19T03:26:17;14.10;;;7.03;;
62123;SDS011;48110;47.532;19.078;2022-08-19T03:29:20;8.63;;;6.37;;
62123;SDS011;48110;47.532;19.078;2022-08-19T03:32:32;16.25;;;7.45;;
62123;SDS011;48110;47.532;19.078;2022-08-19T03:35:35;12.02;;;7.28;;
62123;SDS011;48110;47.532;19.078;2022-08-19T03:38:42;11.32;;;7.30;;
62123;SDS011;48110;47.532;19.078;2022-08-19T03:41:57;13.27;;;7.50;;
62123;SDS011;48110;47.532;19.078;2022-08-19T03:45:24;9.35;;;6.95;;
62123;SDS011;48110;47.532;19.078;2022-08-19T03:48:30;13.77;;;6.78;;
62123;SDS011;48110;47.532;19.078;2022-08-19T03:51:34;12.65;;;7.07;;
62123;SDS011;48110;47.532;19.078;2022-08-19T03:54:40;11.43;;;7.57;;
62123;SDS011;48110;47.532;19.078;2022-08-19T03:57:42;10.27;;;7.18;;
62123;SDS011;48110;47.532;19.078;2022-08-19T04:00:45;10.60;;;7.00;;
62123;SDS011;48110;47.532;19.078;2022-08-19T04:03:48;9.13;;;7.10;;
62123;SDS011;48110;47.532;19.078;2022-08-19T04:06:51;12.45;;;6.90;;
62123;SDS011;48110;47.532;19.078;2022-08-19T04:09:55;11.80;;;6.65;;
62123;SDS011;48110;47.532;19.078;2022-08-19T04:12:58;13.43;;;7.12;;
62123;SDS011;48110;47.532;19.078;2022-08-19T04:16:00;16.10;;;7.45;;
62123;SDS011;48110;47.532;19.078;2022-08-19T04:19:04;15.20;;;6.65;;
62123;SDS011;48110;47.532;19.078;2022-08-19T04:22:09;10.35;;;6.70;;
62123;SDS011;48110;47.532;19.078;2022-08-19T04:25:13;11.63;;;7.00;;
62123;SDS011;48110;47.532;19.078;2022-08-19T04:28:16;7.95;;;6.37;;
62123;SDS011;48110;47.532;19.078;2022-08-19T04:31:19;9.82;;;7.30;;
62123;SDS011;48110;47.532;19.078;2022-08-19T04:34:29;13.40;;;7.12;;
62123;SDS011;48110;47.532;19.078;2022-08-19T04:37:32;13.13;;;7.10;;
62123;SDS011;48110;47.532;19.078;2022-08-19T04:40:40;10.68;;;6.93;;
62123;SDS011;48110;47.532;19.078;2022-08-19T04:44:02;11.95;;;7.10;;
62123;SDS011;48110;47.532;19.078;2022-08-19T04:47:06;12.80;;;6.90;;
62123;SDS011;48110;47.532;19.078;2022-08-19T04:50:12;10.60;;;7.10;;
62123;SDS011;48110;47.532;19.078;2022-08-19T04:53:19;11.45;;;6.97;;
62123;SDS011;48110;47.532;19.078;2022-08-19T04:56:22;11.48;;;7.18;;
62123;SDS011;48110;47.532;19.078;2022-08-19T04:59:28;11.43;;;7.32;;
62123;SDS011;48110;47.532;19.078;2022-08-19T05:02:31;16.23;;;6.78;;
62123;SDS011;48110;47.532;19.078;2022-08-19T05:05:38;10.93;;;7.03;;
62123;SDS011;48110;47.532;19.078;2022-08-19T05:08:46;9.82;;;6.62;;
62123;SDS011;48110;47.532;19.078;2022-08-19T05:11:53;15.00;;;6.75;;
62123;SDS011;48110;47.532;19.078;2022-08-19T05:14:56;8.63;;;6.78;;
62123;SDS011;48110;47.532;19.078;2022-08-19T05:18:00;11.30;;;7.00;;
62123;SDS011;48110;47.532;19.078;2022-08-19T05:21:22;9.73;;;6.43;;
62123;SDS011;48110;47.532;19.078;2022-08-19T05:24:43;14.10;;;6.93;;
62123;SDS011;48110;47.532;19.078;2022-08-19T05:28:06;11.25;;;6.90;;
62123;SDS011;48110;47.532;19.078;2022-08-19T05:31:09;11.40;;;6.87;;
62123;SDS011;48110;47.532;19.078;2022-08-19T05:34:12;11.60;;;6.47;;
62123;SDS011;48110;47.532;19.078;2022-08-19T05:40:24;14.60;;;6.53;;
62123;SDS011;48110;47.532;19.078;2022-08-19T05:43:28;9.98;;;6.37;;
62123;SDS011;48110;47.532;19.078;2022-08-19T05:46:30;12.45;;;6.62;;
62123;SDS011;48110;47.532;19.078;2022-08-19T05:49:34;13.93;;;6.45;;
62123;SDS011;48110;47.532;19.078;2022-08-19T05:52:39;13.77;;;6.85;;
62123;SDS011;48110;47.532;19.078;2022-08-19T05:55:47;10.00;;;6.57;;
62123;SDS011;48110;47.532;19.078;2022-08-19T05:58:50;9.75;;;6.12;;
62123;SDS011;48110;47.532;19.078;2022-08-19T06:01:52;11.70;;;6.12;;
62123;SDS011;48110;47.532;19.078;2022-08-19T06:04:58;15.73;;;6.85;;
62123;SDS011;48110;47.532;19.078;2022-08-19T06:08:00;9.85;;;6.30;;
62123;SDS011;48110;47.532;19.078;2022-08-19T06:11:13;8.60;;;6.50;;
62123;SDS011;48110;47.532;19.078;2022-08-19T06:14:34;10.15;;;7.80;;
62123;SDS011;48110;47.532;19.078;2022-08-19T06:17:43;9.73;;;6.87;;
62123;SDS011;48110;47.532;19.078;2022-08-19T06:20:48;8.60;;;6.10;;
62123;SDS011;48110;47.532;19.078;2022-08-19T06:23:57;12.52;;;5.90;;
62123;SDS011;48110;47.532;19.078;2022-08-19T06:27:00;11.93;;;5.95;;
62123;SDS011;48110;47.532;19.078;2022-08-19T06:30:04;13.77;;;6.25;;
62123;SDS011;48110;47.532;19.078;2022-08-19T06:33:07;13.57;;;6.00;;
62123;SDS011;48110;47.532;19.078;2022-08-19T06:36:21;9.93;;;6.18;;
62123;SDS011;48110;47.532;19.078;2022-08-19T06:39:34;9.00;;;5.80;;
62123;SDS011;48110;47.532;19.078;2022-08-19T06:42:40;7.20;;;5.75;;
62123;SDS011;48110;47.532;19.078;2022-08-19T06:45:56;13.43;;;5.82;;
62123;SDS011;48110;47.532;19.078;2022-08-19T06:49:00;14.68;;;6.15;;
62123;SDS011;48110;47.532;19.078;2022-08-19T06:52:04;8.98;;;5.95;;
62123;SDS011;48110;47.532;19.078;2022-08-19T06:55:08;8.30;;;5.25;;
62123;SDS011;48110;47.532;19.078;2022-08-19T06:58:11;12.27;;;5.95;;
62123;SDS011;48110;47.532;19.078;2022-08-19T07:01:14;15.82;;;5.95;;
62123;SDS011;48110;47.532;19.078;2022-08-19T07:04:19;7.43;;;5.50;;
62123;SDS011;48110;47.532;19.078;2022-08-19T07:07:23;8.10;;;4.50;;
62123;SDS011;48110;47.532;19.078;2022-08-19T07:10:26;6.75;;;4.80;;
62123;SDS011;48110;47.532;19.078;2022-08-19T07:13:29;7.95;;;5.03;;
62123;SDS011;48110;47.532;19.078;2022-08-19T07:16:31;10.00;;;4.90;;
62123;SDS011;48110;47.532;19.078;2022-08-19T07:19:34;10.80;;;4.90;;
62123;SDS011;48110;47.532;19.078;2022-08-19T07:22:37;8.55;;;4.97;;
62123;SDS011;48110;47.532;19.078;2022-08-19T07:25:41;11.23;;;4.78;;
62123;SDS011;48110;47.532;19.078;2022-08-19T07:28:45;9.93;;;4.40;;
62123;SDS011;48110;47.532;19.078;2022-08-19T07:31:54;8.20;;;4.53;;
62123;SDS011;48110;47.532;19.078;2022-08-19T07:35:01;11.27;;;5.10;;
62123;SDS011;48110;47.532;19.078;2022-08-19T07:38:05;7.85;;;4.70;;
62123;SDS011;48110;47.532;19.078;2022-08-19T07:41:09;9.27;;;4.37;;
62123;SDS011;48110;47.532;19.078;2022-08-19T07:44:17;11.07;;;5.13;;
62123;SDS011;48110;47.532;19.078;2022-08-19T07:47:22;5.45;;;4.30;;
62123;SDS011;48110;47.532;19.078;2022-08-19T07:50:45;4.97;;;3.58;;
62123;SDS011;48110;47.532;19.078;2022-08-19T07:53:48;5.55;;;3.65;;
62123;SDS011;48110;47.532;19.078;2022-08-19T07:56:53;5.05;;;4.25;;
62123;SDS011;48110;47.532;19.078;2022-08-19T07:59:55;8.18;;;4.00;;
62123;SDS011;48110;47.532;19.078;2022-08-19T08:02:59;6.12;;;3.92;;
62123;SDS011;48110;47.532;19.078;2022-08-19T08:06:02;6.32;;;3.90;;
62123;SDS011;48110;47.532;19.078;2022-08-19T08:09:28;8.57;;;3.67;;
62123;SDS011;48110;47.532;19.078;2022-08-19T08:12:40;6.90;;;3.97;;
62123;SDS011;48110;47.532;19.078;2022-08-19T08:15:43;7.57;;;3.90;;
62123;SDS011;48110;47.532;19.078;2022-08-19T08:18:47;7.65;;;3.35;;
62123;SDS011;48110;47.532;19.078;2022-08-19T08:21:55;3.87;;;3.47;;
62123;SDS011;48110;47.532;19.078;2022-08-19T08:25:01;6.37;;;3.60;;
62123;SDS011;48110;47.532;19.078;2022-08-19T08:28:10;8.52;;;3.67;;
62123;SDS011;48110;47.532;19.078;2022-08-19T08:31:19;4.47;;;3.05;;
62123;SDS011;48110;47.532;19.078;2022-08-19T08:34:22;6.15;;;3.42;;
62123;SDS011;48110;47.532;19.078;2022-08-19T08:37:25;17.10;;;3.70;;
62123;SDS011;48110;47.532;19.078;2022-08-19T08:40:30;5.68;;;3.42;;
62123;SDS011;48110;47.532;19.078;2022-08-19T08:47:00;6.28;;;3.15;;
62123;SDS011;48110;47.532;19.078;2022-08-19T08:50:12;7.78;;;3.20;;
62123;SDS011;48110;47.532;19.078;2022-08-19T08:53:21;5.47;;;3.22;;
62123;SDS011;48110;47.532;19.078;2022-08-19T08:56:31;7.97;;;3.35;;
62123;SDS011;48110;47.532;19.078;2022-08-19T08:59:35;10.15;;;3.37;;
62123;SDS011;48110;47.532;19.078;2022-08-19T09:02:39;10.18;;;3.20;;
62123;SDS011;48110;47.532;19.078;2022-08-19T09:05:48;10.98;;;3.35;;
62123;SDS011;48110;47.532;19.078;2022-08-19T09:09:11;8.93;;;3.30;;
62123;SDS011;48110;47.532;19.078;2022-08-19T09:13:02;3.85;;;3.20;;
62123;SDS011;48110;47.532;19.078;2022-08-19T09:16:18;4.78;;;3.35;;
62123;SDS011;48110;47.532;19.078;2022-08-19T09:19:30;6.93;;;3.30;;
62123;SDS011;48110;47.532;19.078;2022-08-19T09:22:34;7.45;;;3.72;;
62123;SDS011;48110;47.532;19.078;2022-08-19T09:25:41;4.75;;;3.08;;
62123;SDS011;48110;47.532;19.078;2022-08-19T09:28:45;4.35;;;2.92;;
62123;SDS011;48110;47.532;19.078;2022-08-19T09:31:50;6.95;;;3.35;;
62123;SDS011;48110;47.532;19.078;2022-08-19T09:34:53;118.47;;;8.85;;
62123;SDS011;48110;47.532;19.078;2022-08-19T09:38:01;5.62;;;3.03;;
62123;SDS011;48110;47.532;19.078;2022-08-19T09:41:05;5.40;;;3.12;;
62123;SDS011;48110;47.532;19.078;2022-08-19T09:44:09;3.87;;;3.08;;
62123;SDS011;48110;47.532;19.078;2022-08-19T09:47:18;4.37;;;3.12;;
62123;SDS011;48110;47.532;19.078;2022-08-19T09:50:27;8.10;;;3.47;;
62123;SDS011;48110;47.532;19.078;2022-08-19T09:53:30;5.05;;;3.10;;
62123;SDS011;48110;47.532;19.078;2022-08-19T09:56:35;9.68;;;3.22;;
62123;SDS011;48110;47.532;19.078;2022-08-19T09:59:39;10.50;;;3.30;;
62123;SDS011;48110;47.532;19.078;2022-08-19T10:02:42;7.22;;;2.87;;
62123;SDS011;48110;47.532;19.078;2022-08-19T10:05:50;7.87;;;3.30;;
62123;SDS011;48110;47.532;19.078;2022-08-19T10:08:56;4.23;;;3.43;;
62123;SDS011;48110;47.532;19.078;2022-08-19T10:12:00;5.28;;;3.40;;
62123;SDS011;48110;47.532;19.078;2022-08-19T10:15:07;7.03;;;3.70;;
62123;SDS011;48110;47.532;19.078;2022-08-19T10:18:11;4.32;;;3.10;;
62123;SDS011;48110;47.532;19.078;2022-08-19T10:21:15;9.05;;;3.37;;
62123;SDS011;48110;47.532;19.078;2022-08-19T10:24:21;4.78;;;3.05;;
62123;SDS011;48110;47.532;19.078;2022-08-19T10:27:26;6.55;;;2.97;;
62123;SDS011;48110;47.532;19.078;2022-08-19T10:30:38;6.35;;;2.87;;
62123;SDS011;48110;47.532;19.078;2022-08-19T10:33:41;4.57;;;3.20;;
62123;SDS011;48110;47.532;19.078;2022-08-19T10:36:55;6.70;;;3.10;;
62123;SDS011;48110;47.532;19.078;2022-08-19T10:40:04;6.25;;;3.20;;
62123;SDS011;48110;47.532;19.078;2022-08-19T10:43:09;11.88;;;3.92;;
62123;SDS011;48110;47.532;19.078;2022-08-19T10:46:13;5.70;;;3.53;;
62123;SDS011;48110;47.532;19.078;2022-08-19T10:49:18;4.93;;;2.80;;
62123;SDS011;48110;47.532;19.078;2022-08-19T10:52:25;4.97;;;2.75;;
62123;SDS011;48110;47.532;19.078;2022-08-19T10:55:40;5.72;;;3.00;;
62123;SDS011;48110;47.532;19.078;2022-08-19T10:59:02;5.00;;;3.10;;
62123;SDS011;48110;47.532;19.078;2022-08-19T11:05:15;11.10;;;3.10;;
62123;SDS011;48110;47.532;19.078;2022-08-19T11:08:19;4.55;;;2.58;;
62123;SDS011;48110;47.532;19.078;2022-08-19T11:11:25;8.88;;;3.20;;
62123;SDS011;48110;47.532;19.078;2022-08-19T11:14:28;5.10;;;2.85;;
62123;SDS011;48110;47.532;19.078;2022-08-19T11:17:35;4.22;;;2.72;;
62123;SDS011;48110;47.532;19.078;2022-08-19T11:20:39;8.82;;;2.78;;
62123;SDS011;48110;47.532;19.078;2022-08-19T11:23:41;7.43;;;3.00;;
62123;SDS011;48110;47.532;19.078;2022-08-19T11:26:46;7.05;;;2.92;;
62123;SDS011;48110;47.532;19.078;2022-08-19T11:29:56;9.73;;;2.83;;
62123;SDS011;48110;47.532;19.078;2022-08-19T11:32:59;4.53;;;2.95;;
62123;SDS011;48110;47.532;19.078;2022-08-19T11:36:03;4.45;;;3.50;;
62123;SDS011;48110;47.532;19.078;2022-08-19T11:39:11;10.65;;;3.33;;
62123;SDS011;48110;47.532;19.078;2022-08-19T11:42:16;5.20;;;3.28;;
62123;SDS011;48110;47.532;19.078;2022-08-19T11:45:52;8.25;;;4.07;;
62123;SDS011;48110;47.532;19.078;2022-08-19T11:48:57;5.87;;;3.37;;
62123;SDS011;48110;47.532;19.078;2022-08-19T11:52:02;7.30;;;3.95;;
62123;SDS011;48110;47.532;19.078;2022-08-19T11:55:05;8.07;;;3.40;;
62123;SDS011;48110;47.532;19.078;2022-08-19T11:58:10;5.70;;;2.90;;
62123;SDS011;48110;47.532;19.078;2022-08-19T12:01:21;6.03;;;3.33;;
62123;SDS011;48110;47.532;19.078;2022-08-19T12:04:24;11.15;;;3.40;;
62123;SDS011;48110;47.532;19.078;2022-08-19T12:07:27;7.05;;;3.40;;
62123;SDS011;48110;47.532;19.078;2022-08-19T12:10:32;28.73;;;3.35;;
62123;SDS011;48110;47.532;19.078;2022-08-19T12:13:35;10.20;;;3.75;;
62123;SDS011;48110;47.532;19.078;2022-08-19T12:16:39;15.70;;;4.57;;
62123;SDS011;48110;47.532;19.078;2022-08-19T12:19:52;8.43;;;4.20;;
62123;SDS011;48110;47.532;19.078;2022-08-19T12:22:56;10.00;;;4.43;;
62123;SDS011;48110;47.532;19.078;2022-08-19T12:26:01;7.45;;;3.75;;
62123;SDS011;48110;47.532;19.078;2022-08-19T12:29:04;9.77;;;3.20;;
62123;SDS011;48110;47.532;19.078;2022-08-19T12:32:07;5.30;;;2.95;;
62123;SDS011;48110;47.532;19.078;2022-08-19T12:35:16;12.50;;;6.40;;
62123;SDS011;48110;47.532;19.078;2022-08-19T12:38:20;16.55;;;7.97;;
62123;SDS011;48110;47.532;19.078;2022-08-19T12:41:26;15.07;;;7.68;;
62123;SDS011;48110;47.532;19.078;2022-08-19T12:44:29;10.40;;;6.15;;
62123;SDS011;48110;47.532;19.078;2022-08-19T12:47:39;11.02;;;5.30;;
62123;SDS011;48110;47.532;19.078;2022-08-19T12:50:46;9.68;;;4.57;;
62123;SDS011;48110;47.532;19.078;2022-08-19T12:53:49;11.63;;;4.90;;
62123;SDS011;48110;47.532;19.078;2022-08-19T12:56:52;14.02;;;5.28;;
62123;SDS011;48110;47.532;19.078;2022-08-19T12:59:55;11.38;;;5.00;;
62123;SDS011;48110;47.532;19.078;2022-08-19T13:02:58;9.20;;;5.65;;
62123;SDS011;48110;47.532;19.078;2022-08-19T13:06:02;13.48;;;6.05;;
62123;SDS011;48110;47.532;19.078;2022-08-19T13:09:05;11.55;;;6.22;;
62123;SDS011;48110;47.532;19.078;2022-08-19T13:12:08;10.98;;;6.15;;
62123;SDS011;48110;47.532;19.078;2022-08-19T13:15:15;13.57;;;6.70;;
62123;SDS011;48110;47.532;19.078;2022-08-19T13:18:27;11.82;;;6.75;;
62123;SDS011;48110;47.532;19.078;2022-08-19T13:21:30;11.27;;;6.30;;
62123;SDS011;48110;47.532;19.078;2022-08-19T13:24:35;23.20;;;6.68;;
62123;SDS011;48110;47.532;19.078;2022-08-19T13:27:40;16.65;;;6.40;;
62123;SDS011;48110;47.532;19.078;2022-08-19T13:30:49;11.93;;;6.72;;
62123;SDS011;48110;47.532;19.078;2022-08-19T13:34:12;14.32;;;5.97;;
62123;SDS011;48110;47.532;19.078;2022-08-19T13:37:16;12.37;;;6.37;;
62123;SDS011;48110;47.532;19.078;2022-08-19T13:40:39;10.57;;;6.03;;
62123;SDS011;48110;47.532;19.078;2022-08-19T13:43:43;12.05;;;5.60;;
62123;SDS011;48110;47.532;19.078;2022-08-19T13:46:47;9.05;;;5.75;;
62123;SDS011;48110;47.532;19.078;2022-08-19T13:49:55;15.98;;;3.87;;
62123;SDS011;48110;47.532;19.078;2022-08-19T13:52:58;9.15;;;3.00;;
62123;SDS011;48110;47.532;19.078;2022-08-19T13:56:06;9.52;;;3.17;;
62123;SDS011;48110;47.532;19.078;2022-08-19T13:59:11;5.22;;;2.70;;
62123;SDS011;48110;47.532;19.078;2022-08-19T14:02:16;9.15;;;2.83;;
62123;SDS011;48110;47.532;19.078;2022-08-19T14:05:20;8.93;;;3.53;;
62123;SDS011;48110;47.532;19.078;2022-08-19T14:08:23;15.93;;;3.87;;
62123;SDS011;48110;47.532;19.078;2022-08-19T14:11:28;9.98;;;3.25;;
62123;SDS011;48110;47.532;19.078;2022-08-19T14:14:31;21.87;;;3.60;;
62123;SDS011;48110;47.532;19.078;2022-08-19T14:17:37;17.45;;;3.15;;
62123;SDS011;48110;47.532;19.078;2022-08-19T14:20:44;10.55;;;2.97;;
62123;SDS011;48110;47.532;19.078;2022-08-19T14:23:47;46.37;;;4.97;;
62123;SDS011;48110;47.532;19.078;2022-08-19T14:26:49;25.88;;;3.28;;
62123;SDS011;48110;47.532;19.078;2022-08-19T14:29:55;12.85;;;3.20;;
62123;SDS011;48110;47.532;19.078;2022-08-19T14:33:00;14.60;;;3.47;;
62123;SDS011;48110;47.532;19.078;2022-08-19T14:36:06;13.30;;;2.62;;
62123;SDS011;48110;47.532;19.078;2022-08-19T14:39:08;15.80;;;3.00;;
62123;SDS011;48110;47.532;19.078;2022-08-19T14:42:12;19.30;;;3.00;;
62123;SDS011;48110;47.532;19.078;2022-08-19T14:45:17;9.15;;;2.80;;
62123;SDS011;48110;47.532;19.078;2022-08-19T14:48:20;12.27;;;2.92;;
62123;SDS011;48110;47.532;19.078;2022-08-19T14:51:31;10.95;;;2.97;;
62123;SDS011;48110;47.532;19.078;2022-08-19T14:54:34;16.33;;;2.85;;
62123;SDS011;48110;47.532;19.078;2022-08-19T14:57:37;9.73;;;2.83;;
62123;SDS011;48110;47.532;19.078;2022-08-19T15:00:43;15.40;;;3.03;;
62123;SDS011;48110;47.532;19.078;2022-08-19T15:03:46;10.80;;;2.42;;
62123;SDS011;48110;47.532;19.078;2022-08-19T15:06:50;11.52;;;2.35;;
62123;SDS011;48110;47.532;19.078;2022-08-19T15:09:53;15.48;;;2.65;;
62123;SDS011;48110;47.532;19.078;2022-08-19T15:12:56;13.57;;;2.40;;
62123;SDS011;48110;47.532;19.078;2022-08-19T15:15:59;17.25;;;2.83;;
62123;SDS011;48110;47.532;19.078;2022-08-19T15:19:02;19.67;;;2.28;;
62123;SDS011;48110;47.532;19.078;2022-08-19T15:22:05;7.95;;;2.00;;
62123;SDS011;48110;47.532;19.078;2022-08-19T15:25:08;13.10;;;2.40;;
62123;SDS011;48110;47.532;19.078;2022-08-19T15:28:13;10.52;;;2.15;;
62123;SDS011;48110;47.532;19.078;2022-08-19T15:31:18;10.98;;;2.17;;
62123;SDS011;48110;47.532;19.078;2022-08-19T15:34:30;19.90;;;2.67;;
62123;SDS011;48110;47.532;19.078;2022-08-19T15:37:34;6.93;;;2.40;;
62123;SDS011;48110;47.532;19.078;2022-08-19T15:40:39;10.50;;;2.40;;
62123;SDS011;48110;47.532;19.078;2022-08-19T15:43:43;18.08;;;2.72;;
62123;SDS011;48110;47.532;19.078;2022-08-19T15:46:46;15.40;;;3.05;;
62123;SDS011;48110;47.532;19.078;2022-08-19T15:49:53;14.87;;;2.47;;
62123;SDS011;48110;47.532;19.078;2022-08-19T15:53:03;10.90;;;2.45;;
62123;SDS011;48110;47.532;19.078;2022-08-19T15:56:13;13.38;;;2.72;;
62123;SDS011;48110;47.532;19.078;2022-08-19T15:59:16;13.18;;;3.08;;
62123;SDS011;48110;47.532;19.078;2022-08-19T16:02:48;15.43;;;2.37;;
62123;SDS011;48110;47.532;19.078;2022-08-19T16:06:09;7.10;;;2.55;;
62123;SDS011;48110;47.532;19.078;2022-08-19T16:09:28;8.45;;;2.05;;
62123;SDS011;48110;47.532;19.078;2022-08-19T16:12:34;11.88;;;2.35;;
62123;SDS011;48110;47.532;19.078;2022-08-19T16:15:37;19.23;;;2.45;;
62123;SDS011;48110;47.532;19.078;2022-08-19T16:18:41;7.43;;;2.00;;
62123;SDS011;48110;47.532;19.078;2022-08-19T16:21:45;8.13;;;2.08;;
62123;SDS011;48110;47.532;19.078;2022-08-19T16:24:50;10.55;;;2.17;;
62123;SDS011;48110;47.532;19.078;2022-08-19T16:27:55;10.45;;;1.92;;
62123;SDS011;48110;47.532;19.078;2022-08-19T16:31:10;10.18;;;2.00;;
62123;SDS011;48110;47.532;19.078;2022-08-19T16:34:14;15.90;;;3.05;;
62123;SDS011;48110;47.532;19.078;2022-08-19T16:37:17;9.63;;;2.00;;
62123;SDS011;48110;47.532;19.078;2022-08-19T16:40:22;17.02;;;2.20;;
62123;SDS011;48110;47.532;19.078;2022-08-19T16:43:25;12.18;;;2.15;;
62123;SDS011;48110;47.532;19.078;2022-08-19T16:46:29;15.10;;;2.30;;
62123;SDS011;48110;47.532;19.078;2022-08-19T16:49:34;6.07;;;2.00;;
62123;SDS011;48110;47.532;19.078;2022-08-19T16:52:56;12.35;;;2.55;;
62123;SDS011;48110;47.532;19.078;2022-08-19T16:56:00;15.20;;;2.08;;
62123;SDS011;48110;47.532;19.078;2022-08-19T16:59:03;15.70;;;2.45;;
62123;SDS011;48110;47.532;19.078;2022-08-19T17:02:06;13.75;;;2.50;;
62123;SDS011;48110;47.532;19.078;2022-08-19T17:05:11;14.10;;;2.20;;
62123;SDS011;48110;47.532;19.078;2022-08-19T17:08:14;9.63;;;2.20;;
62123;SDS011;48110;47.532;19.078;2022-08-19T17:11:20;19.40;;;3.75;;
62123;SDS011;48110;47.532;19.078;2022-08-19T17:14:29;10.85;;;2.62;;
62123;SDS011;48110;47.532;19.078;2022-08-19T17:17:33;17.37;;;3.47;;
62123;SDS011;48110;47.532;19.078;2022-08-19T17:20:40;12.45;;;2.92;;
62123;SDS011;48110;47.532;19.078;2022-08-19T17:23:49;13.30;;;2.62;;
62123;SDS011;48110;47.532;19.078;2022-08-19T17:26:53;11.38;;;3.50;;
62123;SDS011;48110;47.532;19.078;2022-08-19T17:29:55;14.45;;;2.62;;
62123;SDS011;48110;47.532;19.078;2022-08-19T17:33:02;14.10;;;2.92;;
62123;SDS011;48110;47.532;19.078;2022-08-19T17:36:08;10.25;;;3.00;;
62123;SDS011;48110;47.532;19.078;2022-08-19T17:39:14;12.10;;;2.75;;
62123;SDS011;48110;47.532;19.078;2022-08-19T17:42:18;8.77;;;2.45;;
62123;SDS011;48110;47.532;19.078;2022-08-19T17:45:21;17.65;;;3.17;;
62123;SDS011;48110;47.532;19.078;2022-08-19T17:48:25;8.88;;;2.65;;
62123;SDS011;48110;47.532;19.078;2022-08-19T17:54:39;14.90;;;2.40;;
62123;SDS011;48110;47.532;19.078;2022-08-19T17:57:42;14.32;;;2.53;;
62123;SDS011;48110;47.532;19.078;2022-08-19T18:00:49;13.40;;;2.75;;
62123;SDS011;48110;47.532;19.078;2022-08-19T18:03:56;13.73;;;2.53;;
62123;SDS011;48110;47.532;19.078;2022-08-19T18:06:59;15.20;;;2.60;;
62123;SDS011;48110;47.532;19.078;2022-08-19T18:10:09;16.83;;;3.08;;
62123;SDS011;48110;47.532;19.078;2022-08-19T18:13:13;14.13;;;2.75;;
62123;SDS011;48110;47.532;19.078;2022-08-19T18:16:19;9.70;;;2.33;;
62123;SDS011;48110;47.532;19.078;2022-08-19T18:19:24;11.00;;;2.90;;
62123;SDS011;48110;47.532;19.078;2022-08-19T18:22:44;9.77;;;3.10;;
62123;SDS011;48110;47.532;19.078;2022-08-19T18:25:48;15.45;;;2.92;;
62123;SDS011;48110;47.532;19.078;2022-08-19T18:28:51;12.00;;;2.40;;
62123;SDS011;48110;47.532;19.078;2022-08-19T18:31:55;13.60;;;2.85;;